Aérodrome :
LOGIN :

S'inscrire | Disclaimer

   EN    FR    IT 

 










Légende :    VFR   VFR Marginal   IFR   IFR Intensif   IFR Très Intensif
Visi : 
Plafond : 
>= 8 km
>= 3000ft
5 à 8 km
1000 à 3000 ft
1500m à 5 km
500 à 1000 ft
800 à 1500m
200 à 500 ft
< 800m
< 200 ft
Symboles :   Orages  Brouillard  Fortes neiges  Fortes précipitations  Vent > 20 kt
SIGMETs :   Divers  Orages  Givrage  Turbulence  Onde Orograph.  Cendres Volcan.







- Altitude de l'aérodrome : 7 ft
- Code IATA : VCE


LIPZ - Marco Polo Int. Venezia

DERNIER METAR :
  • 190320Z 02008KT 4000 BR NSC 24/22 Q1011 NOSIG

METARs EXPIRÉS :
  • 190250Z 04007KT 4000 BR NSC 24/22 Q1011 NOSIG
  • 190220Z 04008KT 6000 NSC 23/21 Q1011 NOSIG
  • 190150Z 03008KT 8000 NSC 24/21 Q1011 NOSIG
  • 190120Z 04009KT CAVOK 25/21 Q1012 NOSIG

TAF AMD TAF LIPZ
Valide du 19 à 03h jusqu'au 20 à 06h UTC


190238Z 1903/2006 VRB05KT 6000 NSC
TEMPO 1903/1906 1500 BR
BECMG 1908/1910 04014KT
TEMPO 1914/2003 TSRA
Pas de NOTAMs connus pour ce terrain.
1 SIGMET publié pour la FIR Milano (LIMM) :
 
Orages noyés dans la masse
LIMM SIGMET 3 VALID 190255/190455 LIMM- LIMM MILANO FIR EMBD TS FCST WI N4650 E01027 - N4508 E01026 - N4639 E01230 - N4703 E01211 - N4650 E01027 TOP FL320 MOV ENE NC=



MET'MAP, la Météo Aéronautique d'un coup d'oeil ! - Copyright ORBIFLY Décembre 2007 - Disclaimer

ORBIFLY MET'MAP TEAM :

Programmation & Développement : Alexandra Zaïnal
Conception & Développement : Baudouin d'Aumeries
Co-Programmation & Développement : Marc-Olivier Méhu
Soutien technique & logistique : Manuel Goepfert

Contact : metmap@orbifly.com




SOURCES & CREDITS :

   NOAA